createdAt,value
2022-08-20T00:00:10.367Z,18.20
2022-08-20T00:05:14.481Z,18.00
2022-08-20T00:10:18.379Z,17.90
2022-08-20T00:15:29.310Z,17.70
2022-08-20T00:20:36.327Z,17.60
2022-08-20T00:25:42.575Z,17.40
2022-08-20T00:30:48.068Z,17.30
2022-08-20T00:35:53.504Z,17.20
2022-08-20T00:40:59.498Z,17.20
2022-08-20T00:46:06.996Z,17.00
2022-08-20T00:51:13.328Z,17.00
2022-08-20T00:56:17.083Z,17.00
2022-08-20T01:01:24.058Z,17.00
2022-08-20T01:06:27.752Z,17.10
2022-08-20T01:11:36.985Z,17.20
2022-08-20T01:16:45.514Z,17.10
2022-08-20T01:21:49.921Z,17.10
2022-08-20T01:26:58.081Z,17.20
2022-08-20T01:32:02.460Z,17.10
2022-08-20T01:37:05.827Z,17.10
2022-08-20T01:42:15.555Z,16.90
2022-08-20T01:47:23.773Z,16.90
2022-08-20T01:52:34.546Z,16.90
2022-08-20T01:57:40.721Z,16.90
2022-08-20T02:02:44.740Z,16.80
2022-08-20T02:07:48.037Z,16.90
2022-08-20T02:12:53.138Z,16.90
2022-08-20T02:17:59.198Z,16.90
2022-08-20T02:23:03.491Z,16.90
2022-08-20T02:28:10.577Z,16.90
2022-08-20T02:33:16.258Z,17.00
2022-08-20T02:38:19.573Z,16.90
2022-08-20T02:43:24.396Z,16.90
2022-08-20T02:48:28.861Z,16.90
2022-08-20T02:53:34.511Z,16.90
2022-08-20T02:58:39.502Z,16.90
2022-08-20T03:03:44.455Z,16.90
2022-08-20T03:08:47.760Z,17.00
2022-08-20T03:13:52.777Z,17.10
2022-08-20T03:18:56.005Z,17.10
2022-08-20T03:23:59.269Z,17.10
2022-08-20T03:29:04.378Z,16.90
2022-08-20T03:34:07.700Z,16.90
2022-08-20T03:39:13.369Z,16.80
2022-08-20T03:44:18.658Z,16.60
2022-08-20T03:49:24.348Z,16.50
2022-08-20T03:54:31.708Z,16.40
2022-08-20T03:59:37.032Z,16.40
2022-08-20T04:04:40.874Z,16.40
2022-08-20T04:09:44.935Z,16.40
2022-08-20T04:14:49.665Z,16.50
2022-08-20T04:19:53.307Z,16.60
2022-08-20T04:24:56.542Z,16.60
2022-08-20T04:30:03.983Z,16.60
2022-08-20T04:35:08.608Z,16.70
2022-08-20T04:40:33.124Z,16.70
2022-08-20T04:45:37.722Z,16.70
2022-08-20T04:50:43.196Z,16.70
2022-08-20T04:55:47.311Z,16.70
2022-08-20T05:00:55.524Z,16.90
2022-08-20T05:06:01.473Z,16.90
2022-08-20T05:11:33.715Z,17.00
2022-08-20T05:16:29.713Z,17.00
2022-08-20T05:21:32.938Z,17.00
2022-08-20T05:26:36.560Z,17.00
2022-08-20T05:31:42.325Z,17.00
2022-08-20T05:36:49.686Z,17.00
2022-08-20T05:41:53.214Z,17.20
2022-08-20T05:46:57.799Z,17.50
2022-08-20T05:52:01.111Z,17.80
2022-08-20T05:57:04.714Z,18.40
2022-08-20T06:02:29.569Z,18.70
2022-08-20T06:07:32.828Z,18.90
2022-08-20T06:12:36.202Z,19.20
2022-08-20T06:17:41.576Z,19.70
2022-08-20T06:22:48.035Z,20.30
2022-08-20T06:27:51.397Z,20.20
2022-08-20T06:32:56.177Z,20.70
2022-08-20T06:38:00.511Z,20.80
2022-08-20T06:43:03.931Z,20.30
2022-08-20T06:48:11.287Z,19.80
2022-08-20T06:53:21.896Z,19.60
2022-08-20T06:58:37.874Z,19.40
2022-08-20T07:03:54.419Z,19.40
2022-08-20T07:08:59.219Z,19.50
2022-08-20T07:14:05.619Z,19.90
2022-08-20T07:19:10.579Z,20.30
2022-08-20T07:24:13.848Z,20.60
2022-08-20T07:29:17.545Z,20.70
2022-08-20T07:34:26.379Z,20.70
2022-08-20T07:39:30.041Z,21.00
2022-08-20T07:44:35.441Z,21.40
2022-08-20T07:49:41.737Z,21.60
2022-08-20T07:54:45.461Z,21.40
2022-08-20T07:59:49.631Z,21.20
2022-08-20T08:04:54.390Z,20.80
2022-08-20T08:09:58.826Z,20.70
2022-08-20T08:15:03.068Z,20.80
2022-08-20T08:20:09.717Z,20.80
2022-08-20T08:25:14.041Z,20.90
2022-08-20T08:30:18.326Z,21.10
2022-08-20T08:35:23.105Z,21.80
2022-08-20T08:40:26.768Z,22.80
2022-08-20T08:45:36.866Z,24.10
2022-08-20T08:50:54.190Z,25.20
2022-08-20T08:55:58.770Z,27.50
2022-08-20T09:01:13.950Z,28.60
2022-08-20T09:06:37.574Z,28.10
2022-08-20T09:11:48.138Z,26.90
2022-08-20T09:16:53.333Z,26.90
2022-08-20T09:21:59.239Z,27.20
2022-08-20T09:27:02.578Z,27.20
2022-08-20T09:32:07.853Z,27.00
2022-08-20T09:37:14.655Z,27.10
2022-08-20T09:42:21.371Z,27.60
2022-08-20T09:47:25.051Z,27.90
2022-08-20T09:52:33.049Z,28.30
2022-08-20T09:57:36.577Z,28.30
2022-08-20T10:02:40.580Z,26.80
2022-08-20T10:07:45.395Z,25.60
2022-08-20T10:12:54.771Z,24.50
2022-08-20T10:17:58.590Z,22.40
2022-08-20T10:23:03.678Z,21.10
2022-08-20T10:28:08.316Z,20.30
2022-08-20T10:33:11.707Z,20.00
2022-08-20T10:38:16.447Z,20.00
2022-08-20T10:43:19.791Z,20.30
2022-08-20T10:48:23.055Z,20.60
2022-08-20T10:53:27.841Z,21.00
2022-08-20T10:58:37.532Z,21.50
2022-08-20T11:03:43.059Z,21.40
2022-08-20T11:08:47.761Z,20.60
2022-08-20T11:13:51.277Z,20.20
2022-08-20T11:18:55.824Z,19.70
2022-08-20T11:24:02.919Z,19.40
2022-08-20T11:29:06.624Z,19.40
2022-08-20T11:34:12.859Z,19.40
2022-08-20T11:39:17.692Z,19.20
2022-08-20T11:44:21.754Z,19.30
2022-08-20T11:49:25.289Z,19.30
2022-08-20T11:54:31.949Z,19.40
2022-08-20T11:59:36.143Z,19.60
2022-08-20T12:04:39.427Z,19.70
2022-08-20T12:09:50.970Z,19.80
2022-08-20T12:14:56.025Z,20.00
2022-08-20T12:20:01.859Z,20.40
2022-08-20T12:25:08.363Z,20.40
2022-08-20T12:30:14.663Z,20.60
2022-08-20T12:35:22.041Z,20.80
2022-08-20T12:40:32.245Z,20.90
2022-08-20T12:45:37.249Z,21.30
2022-08-20T12:50:43.290Z,21.70
2022-08-20T12:55:48.398Z,21.70
2022-08-20T13:00:59.252Z,22.10
2022-08-20T13:06:02.867Z,22.50
2022-08-20T13:11:07.809Z,22.90
2022-08-20T13:16:11.889Z,23.30
2022-08-20T13:21:15.902Z,23.40
2022-08-20T13:26:23.608Z,23.00
2022-08-20T13:31:26.880Z,22.90
2022-08-20T13:36:32.160Z,22.60
2022-08-20T13:41:36.940Z,22.70
2022-08-20T13:46:40.226Z,22.60
2022-08-20T13:51:43.544Z,22.30
2022-08-20T13:56:51.173Z,22.30
2022-08-20T14:01:54.486Z,22.80
2022-08-20T14:06:57.764Z,23.20
2022-08-20T14:12:02.437Z,23.10
2022-08-20T14:17:19.936Z,23.00
2022-08-20T14:22:23.239Z,22.50
2022-08-20T14:27:31.138Z,22.50
2022-08-20T14:32:35.268Z,22.60
2022-08-20T14:37:40.697Z,22.70
2022-08-20T14:42:51.479Z,22.70
2022-08-20T14:47:57.341Z,23.20
2022-08-20T14:53:00.940Z,23.70
2022-08-20T14:58:08.311Z,23.40
2022-08-20T15:03:13.461Z,23.10
2022-08-20T15:08:16.911Z,22.60
2022-08-20T15:13:21.709Z,22.40
2022-08-20T15:18:25.292Z,22.90
2022-08-20T15:23:28.620Z,23.20
2022-08-20T15:28:33.488Z,23.20
2022-08-20T15:33:36.858Z,23.20
2022-08-20T15:38:40.176Z,23.20
2022-08-20T15:43:44.897Z,23.30
2022-08-20T15:48:49.143Z,23.00
2022-08-20T15:54:00.636Z,22.50
2022-08-20T15:59:22.788Z,21.80
2022-08-20T16:04:54.936Z,21.30
2022-08-20T16:10:05.939Z,21.10
2022-08-20T16:15:17.775Z,21.70
2022-08-20T16:20:25.494Z,22.00
2022-08-20T16:25:44.212Z,22.20
2022-08-20T16:30:52.531Z,22.40
2022-08-20T16:36:01.095Z,22.50
2022-08-20T16:41:17.802Z,22.40
2022-08-20T16:46:26.255Z,22.10
2022-08-20T16:51:40.924Z,21.60
2022-08-20T16:56:46.455Z,21.40
2022-08-20T17:02:04.485Z,21.40
2022-08-20T17:07:13.084Z,21.50
2022-08-20T17:12:18.901Z,21.50
2022-08-20T17:17:27.334Z,21.50
2022-08-20T17:22:32.506Z,21.30
2022-08-20T17:27:40.274Z,21.20
2022-08-20T17:32:57.876Z,21.10
2022-08-20T17:38:03.640Z,20.80
2022-08-20T17:43:10.122Z,20.60
2022-08-20T17:48:20.273Z,20.40
2022-08-20T17:53:26.942Z,20.30
2022-08-20T17:58:39.374Z,20.00
2022-08-20T18:03:44.093Z,19.80
2022-08-20T18:08:57.089Z,19.50
2022-08-20T18:14:20.246Z,19.30
2022-08-20T18:19:50.755Z,19.00
2022-08-20T18:25:02.222Z,18.80
2022-08-20T18:30:21.391Z,18.50
2022-08-20T18:35:45.809Z,18.30
2022-08-20T18:40:55.437Z,18.00
2022-08-20T18:46:17.962Z,17.80
2022-08-20T18:51:30.182Z,17.70
2022-08-20T18:56:40.932Z,17.50
2022-08-20T19:01:47.316Z,17.40
2022-08-20T19:06:57.590Z,17.30
2022-08-20T19:12:24.974Z,17.20
2022-08-20T19:17:53.016Z,17.10
2022-08-20T19:23:06.033Z,17.30
2022-08-20T19:28:22.831Z,17.40
2022-08-20T19:33:31.491Z,17.20
2022-08-20T19:38:51.204Z,16.90
2022-08-20T19:43:55.039Z,16.60
2022-08-20T19:49:15.373Z,16.40
2022-08-20T19:54:25.214Z,16.30
2022-08-20T19:59:28.517Z,16.20
2022-08-20T20:04:41.130Z,16.10
2022-08-20T20:10:00.375Z,16.00
2022-08-20T20:15:04.076Z,15.90
2022-08-20T20:20:22.511Z,15.80
2022-08-20T20:25:42.274Z,15.70
2022-08-20T20:30:47.158Z,15.70
2022-08-20T20:36:01.870Z,15.60
2022-08-20T20:41:19.082Z,15.60
2022-08-20T20:46:27.670Z,15.50
2022-08-20T20:51:34.202Z,15.50
2022-08-20T20:56:40.953Z,15.50
2022-08-20T21:01:48.743Z,15.60
2022-08-20T21:06:57.236Z,15.50
2022-08-20T21:12:01.894Z,15.40
2022-08-20T21:17:08.119Z,15.50
2022-08-20T21:22:11.328Z,15.60
2022-08-20T21:27:16.101Z,15.60
2022-08-20T21:32:20.638Z,15.50
2022-08-20T21:37:24.114Z,15.40
2022-08-20T21:42:29.850Z,15.40
2022-08-20T21:47:33.283Z,15.40
2022-08-20T21:52:38.029Z,15.50
2022-08-20T21:57:51.474Z,15.60
2022-08-20T22:02:54.752Z,15.70
2022-08-20T22:07:58.057Z,15.60
2022-08-20T22:13:02.907Z,15.60
2022-08-20T22:18:08.046Z,15.60
2022-08-20T22:23:11.625Z,15.50
2022-08-20T22:28:16.426Z,15.40
2022-08-20T22:33:22.848Z,15.40
2022-08-20T22:38:26.569Z,15.10
2022-08-20T22:43:31.211Z,15.00
2022-08-20T22:48:34.658Z,15.00
2022-08-20T22:53:38.243Z,15.20
2022-08-20T22:58:42.847Z,15.40
2022-08-20T23:03:52.542Z,15.40
2022-08-20T23:08:55.809Z,15.40
2022-08-20T23:14:00.526Z,15.50
2022-08-20T23:19:05.061Z,15.40
2022-08-20T23:24:08.693Z,15.00
2022-08-20T23:29:22.193Z,14.80
2022-08-20T23:34:28.854Z,14.60
2022-08-20T23:39:32.428Z,14.40
2022-08-20T23:44:37.061Z,14.40
2022-08-20T23:49:40.326Z,14.20
2022-08-20T23:54:43.844Z,14.10
2022-08-20T23:59:48.626Z,13.90
